sensor_id;sensor_type;location;lat;lon;timestamp;temperature;humidity
2729;DHT22;1372;47.956;7.830;2022-08-19T00:01:29;18.60;99.90
2729;DHT22;1372;47.956;7.830;2022-08-19T00:04:21;18.60;99.90
2729;DHT22;1372;47.956;7.830;2022-08-19T00:06:51;18.70;99.90
2729;DHT22;1372;47.956;7.830;2022-08-19T00:09:22;18.70;99.90
2729;DHT22;1372;47.956;7.830;2022-08-19T00:11:53;18.70;99.90
2729;DHT22;1372;47.956;7.830;2022-08-19T00:14:43;18.70;99.90
2729;DHT22;1372;47.956;7.830;2022-08-19T00:17:12;18.60;99.90
2729;DHT22;1372;47.956;7.830;2022-08-19T00:19:41;18.70;99.90
2729;DHT22;1372;47.956;7.830;2022-08-19T00:22:10;18.60;99.90
2729;DHT22;1372;47.956;7.830;2022-08-19T00:24:39;18.60;99.90
2729;DHT22;1372;47.956;7.830;2022-08-19T00:27:08;18.70;99.90
2729;DHT22;1372;47.956;7.830;2022-08-19T00:30:14;18.70;99.90
2729;DHT22;1372;47.956;7.830;2022-08-19T00:32:46;18.70;99.90
2729;DHT22;1372;47.956;7.830;2022-08-19T00:35:15;18.60;99.90
2729;DHT22;1372;47.956;7.830;2022-08-19T00:37:47;18.60;99.90
2729;DHT22;1372;47.956;7.830;2022-08-19T00:40:22;18.60;99.90
2729;DHT22;1372;47.956;7.830;2022-08-19T00:42:54;18.60;99.90
2729;DHT22;1372;47.956;7.830;2022-08-19T00:45:26;18.60;99.90
2729;DHT22;1372;47.956;7.830;2022-08-19T00:47:57;18.60;99.90
2729;DHT22;1372;47.956;7.830;2022-08-19T00:50:30;18.60;99.90
2729;DHT22;1372;47.956;7.830;2022-08-19T00:53:02;18.60;99.90
2729;DHT22;1372;47.956;7.830;2022-08-19T00:55:32;18.60;99.90
2729;DHT22;1372;47.956;7.830;2022-08-19T00:58:05;18.60;99.90
2729;DHT22;1372;47.956;7.830;2022-08-19T01:00:59;18.60;99.90
2729;DHT22;1372;47.956;7.830;2022-08-19T01:03:28;18.60;99.90
2729;DHT22;1372;47.956;7.830;2022-08-19T01:06:07;18.60;99.90
2729;DHT22;1372;47.956;7.830;2022-08-19T01:08:35;18.70;99.90
2729;DHT22;1372;47.956;7.830;2022-08-19T01:11:04;18.60;99.90
2729;DHT22;1372;47.956;7.830;2022-08-19T01:13:36;18.60;99.90
2729;DHT22;1372;47.956;7.830;2022-08-19T01:16:12;18.60;99.90
2729;DHT22;1372;47.956;7.830;2022-08-19T01:18:42;18.60;99.90
2729;DHT22;1372;47.956;7.830;2022-08-19T01:21:16;18.60;99.90
2729;DHT22;1372;47.956;7.830;2022-08-19T01:24:08;18.60;99.90
2729;DHT22;1372;47.956;7.830;2022-08-19T01:26:58;18.70;99.90
2729;DHT22;1372;47.956;7.830;2022-08-19T01:29:47;18.60;99.90
2729;DHT22;1372;47.956;7.830;2022-08-19T01:32:18;18.60;99.90
2729;DHT22;1372;47.956;7.830;2022-08-19T01:35:00;18.70;99.90
2729;DHT22;1372;47.956;7.830;2022-08-19T01:37:40;18.70;99.90
2729;DHT22;1372;47.956;7.830;2022-08-19T01:40:11;18.70;99.90
2729;DHT22;1372;47.956;7.830;2022-08-19T01:42:40;18.70;99.90
2729;DHT22;1372;47.956;7.830;2022-08-19T01:45:10;18.70;99.90
2729;DHT22;1372;47.956;7.830;2022-08-19T01:47:39;18.70;99.90
2729;DHT22;1372;47.956;7.830;2022-08-19T01:50:10;18.70;99.90
2729;DHT22;1372;47.956;7.830;2022-08-19T01:52:41;18.70;99.90
2729;DHT22;1372;47.956;7.830;2022-08-19T01:55:15;18.70;99.90
2729;DHT22;1372;47.956;7.830;2022-08-19T01:57:50;18.60;99.90
2729;DHT22;1372;47.956;7.830;2022-08-19T02:00:23;18.70;99.90
2729;DHT22;1372;47.956;7.830;2022-08-19T02:02:52;18.60;99.90
2729;DHT22;1372;47.956;7.830;2022-08-19T02:05:21;18.60;99.90
2729;DHT22;1372;47.956;7.830;2022-08-19T02:07:50;18.60;99.90
2729;DHT22;1372;47.956;7.830;2022-08-19T02:10:21;18.60;99.90
2729;DHT22;1372;47.956;7.830;2022-08-19T02:12:51;18.70;99.90
2729;DHT22;1372;47.956;7.830;2022-08-19T02:15:21;18.70;99.90
2729;DHT22;1372;47.956;7.830;2022-08-19T02:18:09;18.70;99.90
2729;DHT22;1372;47.956;7.830;2022-08-19T02:20:40;18.70;99.90
2729;DHT22;1372;47.956;7.830;2022-08-19T02:23:12;18.70;99.90
2729;DHT22;1372;47.956;7.830;2022-08-19T02:25:46;18.70;99.90
2729;DHT22;1372;47.956;7.830;2022-08-19T02:28:16;18.60;99.90
2729;DHT22;1372;47.956;7.830;2022-08-19T02:31:09;18.60;99.90
2729;DHT22;1372;47.956;7.830;2022-08-19T02:33:39;18.70;99.90
2729;DHT22;1372;47.956;7.830;2022-08-19T02:36:09;18.70;99.90
2729;DHT22;1372;47.956;7.830;2022-08-19T02:38:59;18.70;99.90
2729;DHT22;1372;47.956;7.830;2022-08-19T02:41:32;18.70;99.90
2729;DHT22;1372;47.956;7.830;2022-08-19T02:44:21;18.70;99.90
2729;DHT22;1372;47.956;7.830;2022-08-19T02:46:57;18.60;99.90
2729;DHT22;1372;47.956;7.830;2022-08-19T02:49:27;18.60;99.90
2729;DHT22;1372;47.956;7.830;2022-08-19T02:51:56;18.60;99.90
2729;DHT22;1372;47.956;7.830;2022-08-19T02:54:25;18.50;99.90
2729;DHT22;1372;47.956;7.830;2022-08-19T02:56:55;18.50;99.90
2729;DHT22;1372;47.956;7.830;2022-08-19T02:59:25;18.50;99.90
2729;DHT22;1372;47.956;7.830;2022-08-19T03:02:13;18.50;99.90
2729;DHT22;1372;47.956;7.830;2022-08-19T03:05:02;18.50;99.90
2729;DHT22;1372;47.956;7.830;2022-08-19T03:07:32;18.50;99.90
2729;DHT22;1372;47.956;7.830;2022-08-19T03:10:01;18.50;99.90
2729;DHT22;1372;47.956;7.830;2022-08-19T03:12:52;18.50;99.90
2729;DHT22;1372;47.956;7.830;2022-08-19T03:15:22;18.50;99.90
2729;DHT22;1372;47.956;7.830;2022-08-19T03:17:51;18.50;99.90
2729;DHT22;1372;47.956;7.830;2022-08-19T03:20:20;18.50;99.90
2729;DHT22;1372;47.956;7.830;2022-08-19T03:22:49;18.50;99.90
2729;DHT22;1372;47.956;7.830;2022-08-19T03:25:38;18.50;99.90
2729;DHT22;1372;47.956;7.830;2022-08-19T03:28:13;18.50;99.90
2729;DHT22;1372;47.956;7.830;2022-08-19T03:30:53;18.50;99.90
2729;DHT22;1372;47.956;7.830;2022-08-19T03:33:25;18.50;99.90
2729;DHT22;1372;47.956;7.830;2022-08-19T03:36:04;18.50;99.90
2729;DHT22;1372;47.956;7.830;2022-08-19T03:38:35;18.50;99.90
2729;DHT22;1372;47.956;7.830;2022-08-19T03:41:08;18.50;99.90
2729;DHT22;1372;47.956;7.830;2022-08-19T03:43:40;18.50;99.90
2729;DHT22;1372;47.956;7.830;2022-08-19T03:46:12;18.60;99.90
2729;DHT22;1372;47.956;7.830;2022-08-19T03:48:43;18.60;99.90
2729;DHT22;1372;47.956;7.830;2022-08-19T03:51:18;18.60;99.90
2729;DHT22;1372;47.956;7.830;2022-08-19T03:53:58;18.60;99.90
2729;DHT22;1372;47.956;7.830;2022-08-19T03:56:49;18.60;99.90
2729;DHT22;1372;47.956;7.830;2022-08-19T03:59:23;18.60;99.90
2729;DHT22;1372;47.956;7.830;2022-08-19T04:01:55;18.60;99.90
2729;DHT22;1372;47.956;7.830;2022-08-19T04:04:28;18.60;99.90
2729;DHT22;1372;47.956;7.830;2022-08-19T04:06:58;18.60;99.90
2729;DHT22;1372;47.956;7.830;2022-08-19T04:09:28;18.60;99.90
2729;DHT22;1372;47.956;7.830;2022-08-19T04:12:17;18.60;99.90
2729;DHT22;1372;47.956;7.830;2022-08-19T04:14:51;18.60;99.90
2729;DHT22;1372;47.956;7.830;2022-08-19T04:17:39;18.60;99.90
2729;DHT22;1372;47.956;7.830;2022-08-19T04:20:09;18.60;99.90
2729;DHT22;1372;47.956;7.830;2022-08-19T04:22:40;18.60;99.90
2729;DHT22;1372;47.956;7.830;2022-08-19T04:25:11;18.60;99.90
2729;DHT22;1372;47.956;7.830;2022-08-19T04:27:40;18.60;99.90
2729;DHT22;1372;47.956;7.830;2022-08-19T04:30:14;18.60;99.90
2729;DHT22;1372;47.956;7.830;2022-08-19T04:32:44;18.60;99.90
2729;DHT22;1372;47.956;7.830;2022-08-19T04:35:13;18.60;99.90
2729;DHT22;1372;47.956;7.830;2022-08-19T04:37:45;18.60;99.90
2729;DHT22;1372;47.956;7.830;2022-08-19T04:40:15;18.70;99.90
2729;DHT22;1372;47.956;7.830;2022-08-19T04:43:01;18.60;99.90
2729;DHT22;1372;47.956;7.830;2022-08-19T04:45:51;18.70;99.90
2729;DHT22;1372;47.956;7.830;2022-08-19T04:48:24;18.70;99.90
2729;DHT22;1372;47.956;7.830;2022-08-19T04:50:55;18.70;99.90
2729;DHT22;1372;47.956;7.830;2022-08-19T04:53:26;18.70;99.90
2729;DHT22;1372;47.956;7.830;2022-08-19T04:56:07;18.70;99.90
2729;DHT22;1372;47.956;7.830;2022-08-19T04:58:39;18.70;99.90
2729;DHT22;1372;47.956;7.830;2022-08-19T05:01:32;18.70;99.90
2729;DHT22;1372;47.956;7.830;2022-08-19T05:04:05;18.80;99.90
2729;DHT22;1372;47.956;7.830;2022-08-19T05:06:36;18.80;99.90
2729;DHT22;1372;47.956;7.830;2022-08-19T05:09:05;18.80;99.90
2729;DHT22;1372;47.956;7.830;2022-08-19T05:11:55;18.80;99.90
2729;DHT22;1372;47.956;7.830;2022-08-19T05:14:23;18.80;99.90
2729;DHT22;1372;47.956;7.830;2022-08-19T05:17:13;18.80;99.90
2729;DHT22;1372;47.956;7.830;2022-08-19T05:20:03;18.80;99.90
2729;DHT22;1372;47.956;7.830;2022-08-19T05:22:53;18.80;99.90
2729;DHT22;1372;47.956;7.830;2022-08-19T05:25:22;18.70;99.90
2729;DHT22;1372;47.956;7.830;2022-08-19T05:27:52;18.80;99.90
2729;DHT22;1372;47.956;7.830;2022-08-19T05:30:41;18.90;99.90
2729;DHT22;1372;47.956;7.830;2022-08-19T05:33:15;18.90;99.90
2729;DHT22;1372;47.956;7.830;2022-08-19T05:36:04;18.90;99.90
2729;DHT22;1372;47.956;7.830;2022-08-19T05:38:34;18.90;99.90
2729;DHT22;1372;47.956;7.830;2022-08-19T05:41:07;18.90;99.90
2729;DHT22;1372;47.956;7.830;2022-08-19T05:43:36;19.00;99.90
2729;DHT22;1372;47.956;7.830;2022-08-19T05:46:06;18.90;99.90
2729;DHT22;1372;47.956;7.830;2022-08-19T05:48:37;19.00;99.90
2729;DHT22;1372;47.956;7.830;2022-08-19T05:51:06;18.90;99.90
2729;DHT22;1372;47.956;7.830;2022-08-19T05:53:36;18.90;99.90
2729;DHT22;1372;47.956;7.830;2022-08-19T05:56:07;18.90;99.90
2729;DHT22;1372;47.956;7.830;2022-08-19T05:58:56;18.90;99.90
2729;DHT22;1372;47.956;7.830;2022-08-19T06:01:26;18.90;99.90
2729;DHT22;1372;47.956;7.830;2022-08-19T06:03:56;19.00;99.90
2729;DHT22;1372;47.956;7.830;2022-08-19T06:06:45;19.00;99.90
2729;DHT22;1372;47.956;7.830;2022-08-19T06:09:14;18.90;99.90
2729;DHT22;1372;47.956;7.830;2022-08-19T06:11:45;19.00;99.90
2729;DHT22;1372;47.956;7.830;2022-08-19T06:14:20;19.00;99.90
2729;DHT22;1372;47.956;7.830;2022-08-19T06:16:53;19.00;99.90
2729;DHT22;1372;47.956;7.830;2022-08-19T06:19:24;19.00;99.90
2729;DHT22;1372;47.956;7.830;2022-08-19T06:21:57;19.10;99.90
2729;DHT22;1372;47.956;7.830;2022-08-19T06:24:28;19.10;99.90
2729;DHT22;1372;47.956;7.830;2022-08-19T06:26:59;19.10;99.90
2729;DHT22;1372;47.956;7.830;2022-08-19T06:29:28;19.20;99.90
2729;DHT22;1372;47.956;7.830;2022-08-19T06:32:02;19.20;99.90
2729;DHT22;1372;47.956;7.830;2022-08-19T06:34:34;19.30;99.90
2729;DHT22;1372;47.956;7.830;2022-08-19T06:37:03;19.20;99.90
2729;DHT22;1372;47.956;7.830;2022-08-19T06:39:35;19.20;99.90
2729;DHT22;1372;47.956;7.830;2022-08-19T06:42:06;19.20;99.90
2729;DHT22;1372;47.956;7.830;2022-08-19T06:44:41;19.30;99.90
2729;DHT22;1372;47.956;7.830;2022-08-19T06:47:17;19.20;99.90
2729;DHT22;1372;47.956;7.830;2022-08-19T06:49:53;19.20;99.90
2729;DHT22;1372;47.956;7.830;2022-08-19T06:52:46;19.30;99.90
2729;DHT22;1372;47.956;7.830;2022-08-19T06:55:17;19.30;99.90
2729;DHT22;1372;47.956;7.830;2022-08-19T06:57:46;19.30;99.90
2729;DHT22;1372;47.956;7.830;2022-08-19T07:00:16;19.30;99.90
2729;DHT22;1372;47.956;7.830;2022-08-19T07:02:45;19.40;99.90
2729;DHT22;1372;47.956;7.830;2022-08-19T07:05:18;19.40;99.90
2729;DHT22;1372;47.956;7.830;2022-08-19T07:07:49;19.40;99.90
2729;DHT22;1372;47.956;7.830;2022-08-19T07:10:18;19.40;99.90
2729;DHT22;1372;47.956;7.830;2022-08-19T07:12:47;19.40;99.90
2729;DHT22;1372;47.956;7.830;2022-08-19T07:15:17;19.40;99.90
2729;DHT22;1372;47.956;7.830;2022-08-19T07:17:47;19.50;99.90
2729;DHT22;1372;47.956;7.830;2022-08-19T07:20:22;19.50;99.90
2729;DHT22;1372;47.956;7.830;2022-08-19T07:22:54;19.60;99.90
2729;DHT22;1372;47.956;7.830;2022-08-19T07:25:23;19.60;99.90
2729;DHT22;1372;47.956;7.830;2022-08-19T07:28:01;19.60;99.90
2729;DHT22;1372;47.956;7.830;2022-08-19T07:30:49;19.60;99.90
2729;DHT22;1372;47.956;7.830;2022-08-19T07:33:38;19.70;99.90
2729;DHT22;1372;47.956;7.830;2022-08-19T07:36:10;19.60;99.90
2729;DHT22;1372;47.956;7.830;2022-08-19T07:38:41;19.60;99.90
2729;DHT22;1372;47.956;7.830;2022-08-19T07:41:21;19.70;99.90
2729;DHT22;1372;47.956;7.830;2022-08-19T07:43:52;19.80;99.90
2729;DHT22;1372;47.956;7.830;2022-08-19T07:46:21;19.80;99.90
2729;DHT22;1372;47.956;7.830;2022-08-19T07:48:50;19.70;99.90
2729;DHT22;1372;47.956;7.830;2022-08-19T07:51:21;19.80;99.90
2729;DHT22;1372;47.956;7.830;2022-08-19T07:54:03;19.80;99.90
2729;DHT22;1372;47.956;7.830;2022-08-19T07:56:34;19.90;99.90
2729;DHT22;1372;47.956;7.830;2022-08-19T07:59:02;19.80;99.90
2729;DHT22;1372;47.956;7.830;2022-08-19T08:01:32;19.80;99.90
2729;DHT22;1372;47.956;7.830;2022-08-19T08:04:01;19.90;99.90
2729;DHT22;1372;47.956;7.830;2022-08-19T08:06:50;19.90;99.90
2729;DHT22;1372;47.956;7.830;2022-08-19T08:09:38;20.00;99.90
2729;DHT22;1372;47.956;7.830;2022-08-19T08:12:16;20.00;99.90
2729;DHT22;1372;47.956;7.830;2022-08-19T08:15:04;20.00;99.90
2729;DHT22;1372;47.956;7.830;2022-08-19T08:17:35;20.00;99.90
2729;DHT22;1372;47.956;7.830;2022-08-19T08:20:16;20.10;99.90
2729;DHT22;1372;47.956;7.830;2022-08-19T08:22:48;20.00;99.90
2729;DHT22;1372;47.956;7.830;2022-08-19T08:25:35;20.00;99.90
2729;DHT22;1372;47.956;7.830;2022-08-19T08:28:06;20.00;99.90
2729;DHT22;1372;47.956;7.830;2022-08-19T08:30:37;20.00;99.90
2729;DHT22;1372;47.956;7.830;2022-08-19T08:33:13;20.00;99.90
2729;DHT22;1372;47.956;7.830;2022-08-19T08:35:50;20.00;99.90
2729;DHT22;1372;47.956;7.830;2022-08-19T08:38:21;20.10;99.90
2729;DHT22;1372;47.956;7.830;2022-08-19T08:40:53;20.10;99.90
2729;DHT22;1372;47.956;7.830;2022-08-19T08:43:33;20.10;99.90
2729;DHT22;1372;47.956;7.830;2022-08-19T08:46:28;20.00;99.90
2729;DHT22;1372;47.956;7.830;2022-08-19T08:49:05;20.00;99.90
2729;DHT22;1372;47.956;7.830;2022-08-19T08:51:52;20.10;99.90
2729;DHT22;1372;47.956;7.830;2022-08-19T08:54:34;20.10;99.90
2729;DHT22;1372;47.956;7.830;2022-08-19T08:57:11;20.10;99.90
2729;DHT22;1372;47.956;7.830;2022-08-19T08:59:43;20.10;99.90
2729;DHT22;1372;47.956;7.830;2022-08-19T09:02:18;20.10;99.90
2729;DHT22;1372;47.956;7.830;2022-08-19T09:04:47;20.20;99.90
2729;DHT22;1372;47.956;7.830;2022-08-19T09:07:25;20.20;99.90
2729;DHT22;1372;47.956;7.830;2022-08-19T09:10:10;20.20;99.90
2729;DHT22;1372;47.956;7.830;2022-08-19T09:12:52;20.20;99.90
2729;DHT22;1372;47.956;7.830;2022-08-19T09:15:29;20.20;99.90
2729;DHT22;1372;47.956;7.830;2022-08-19T09:18:04;20.10;99.90
2729;DHT22;1372;47.956;7.830;2022-08-19T09:20:34;20.10;99.90
2729;DHT22;1372;47.956;7.830;2022-08-19T09:23:22;20.10;99.90
2729;DHT22;1372;47.956;7.830;2022-08-19T09:25:55;20.10;99.90
2729;DHT22;1372;47.956;7.830;2022-08-19T09:28:45;20.10;99.90
2729;DHT22;1372;47.956;7.830;2022-08-19T09:31:18;20.20;99.90
2729;DHT22;1372;47.956;7.830;2022-08-19T09:33:50;20.20;99.90
2729;DHT22;1372;47.956;7.830;2022-08-19T09:36:21;20.10;99.90
2729;DHT22;1372;47.956;7.830;2022-08-19T09:39:01;20.20;99.90
2729;DHT22;1372;47.956;7.830;2022-08-19T09:41:32;20.30;99.90
2729;DHT22;1372;47.956;7.830;2022-08-19T09:44:01;20.30;99.90
2729;DHT22;1372;47.956;7.830;2022-08-19T09:46:30;20.30;99.90
2729;DHT22;1372;47.956;7.830;2022-08-19T09:49:00;20.40;99.90
2729;DHT22;1372;47.956;7.830;2022-08-19T09:51:33;20.30;99.90
2729;DHT22;1372;47.956;7.830;2022-08-19T09:54:03;20.30;99.90
2729;DHT22;1372;47.956;7.830;2022-08-19T09:56:54;20.30;99.90
2729;DHT22;1372;47.956;7.830;2022-08-19T09:59:42;20.40;99.90
2729;DHT22;1372;47.956;7.830;2022-08-19T10:02:12;20.50;99.90
2729;DHT22;1372;47.956;7.830;2022-08-19T10:04:40;20.60;99.90
2729;DHT22;1372;47.956;7.830;2022-08-19T10:07:46;20.60;99.90
2729;DHT22;1372;47.956;7.830;2022-08-19T10:10:35;20.60;99.90
2729;DHT22;1372;47.956;7.830;2022-08-19T10:13:05;20.70;99.90
2729;DHT22;1372;47.956;7.830;2022-08-19T10:15:35;20.80;99.90
2729;DHT22;1372;47.956;7.830;2022-08-19T10:18:11;20.80;99.90
2729;DHT22;1372;47.956;7.830;2022-08-19T10:20:40;20.90;99.90
2729;DHT22;1372;47.956;7.830;2022-08-19T10:23:09;21.00;99.90
2729;DHT22;1372;47.956;7.830;2022-08-19T10:25:38;21.10;99.90
2729;DHT22;1372;47.956;7.830;2022-08-19T10:28:09;20.90;99.90
2729;DHT22;1372;47.956;7.830;2022-08-19T10:30:40;21.00;99.90
2729;DHT22;1372;47.956;7.830;2022-08-19T10:33:12;21.00;99.90
2729;DHT22;1372;47.956;7.830;2022-08-19T10:35:43;21.10;99.90
2729;DHT22;1372;47.956;7.830;2022-08-19T10:38:43;21.00;99.90
2729;DHT22;1372;47.956;7.830;2022-08-19T10:41:16;21.00;99.90
2729;DHT22;1372;47.956;7.830;2022-08-19T10:43:47;21.00;99.90
2729;DHT22;1372;47.956;7.830;2022-08-19T10:46:16;21.00;99.90
2729;DHT22;1372;47.956;7.830;2022-08-19T10:48:45;20.90;99.90
2729;DHT22;1372;47.956;7.830;2022-08-19T10:51:14;21.00;99.90
2729;DHT22;1372;47.956;7.830;2022-08-19T10:54:01;21.00;99.90
2729;DHT22;1372;47.956;7.830;2022-08-19T10:56:52;21.00;99.90
2729;DHT22;1372;47.956;7.830;2022-08-19T10:59:41;21.00;99.90
2729;DHT22;1372;47.956;7.830;2022-08-19T11:02:11;21.00;99.90
2729;DHT22;1372;47.956;7.830;2022-08-19T11:04:40;21.00;99.90
2729;DHT22;1372;47.956;7.830;2022-08-19T11:07:09;21.10;99.90
2729;DHT22;1372;47.956;7.830;2022-08-19T11:09:40;21.10;99.90
2729;DHT22;1372;47.956;7.830;2022-08-19T11:12:10;21.20;99.90
2729;DHT22;1372;47.956;7.830;2022-08-19T11:14:41;21.30;99.90
2729;DHT22;1372;47.956;7.830;2022-08-19T11:17:11;21.30;99.90
2729;DHT22;1372;47.956;7.830;2022-08-19T11:19:40;21.30;99.90
2729;DHT22;1372;47.956;7.830;2022-08-19T11:22:10;21.40;99.90
2729;DHT22;1372;47.956;7.830;2022-08-19T11:24:42;21.40;99.90
2729;DHT22;1372;47.956;7.830;2022-08-19T11:27:31;21.50;99.90
2729;DHT22;1372;47.956;7.830;2022-08-19T11:30:21;21.60;99.90
2729;DHT22;1372;47.956;7.830;2022-08-19T11:32:50;21.70;99.90
2729;DHT22;1372;47.956;7.830;2022-08-19T11:35:19;21.70;99.90
2729;DHT22;1372;47.956;7.830;2022-08-19T11:38:10;21.80;99.90
2729;DHT22;1372;47.956;7.830;2022-08-19T11:40:43;21.70;99.90
2729;DHT22;1372;47.956;7.830;2022-08-19T11:43:12;21.80;99.90
2729;DHT22;1372;47.956;7.830;2022-08-19T11:45:44;21.90;99.90
2729;DHT22;1372;47.956;7.830;2022-08-19T11:48:15;21.90;99.90
2729;DHT22;1372;47.956;7.830;2022-08-19T11:50:44;22.00;99.90
2729;DHT22;1372;47.956;7.830;2022-08-19T11:53:13;22.00;99.90
2729;DHT22;1372;47.956;7.830;2022-08-19T11:55:42;22.00;99.90
2729;DHT22;1372;47.956;7.830;2022-08-19T11:58:12;22.00;99.90
2729;DHT22;1372;47.956;7.830;2022-08-19T12:00:46;22.10;99.90
2729;DHT22;1372;47.956;7.830;2022-08-19T12:03:15;22.20;99.90
2729;DHT22;1372;47.956;7.830;2022-08-19T12:05:44;22.30;99.90
2729;DHT22;1372;47.956;7.830;2022-08-19T12:08:13;22.40;99.90
2729;DHT22;1372;47.956;7.830;2022-08-19T12:11:02;22.40;99.90
2729;DHT22;1372;47.956;7.830;2022-08-19T12:13:31;22.40;99.90
2729;DHT22;1372;47.956;7.830;2022-08-19T12:16:07;22.30;99.90
2729;DHT22;1372;47.956;7.830;2022-08-19T12:18:40;22.30;99.90
2729;DHT22;1372;47.956;7.830;2022-08-19T12:21:11;22.30;99.90
2729;DHT22;1372;47.956;7.830;2022-08-19T12:23:41;22.30;99.90
2729;DHT22;1372;47.956;7.830;2022-08-19T12:26:12;22.30;99.90
2729;DHT22;1372;47.956;7.830;2022-08-19T12:28:41;22.30;99.90
2729;DHT22;1372;47.956;7.830;2022-08-19T12:31:11;22.30;99.90
2729;DHT22;1372;47.956;7.830;2022-08-19T12:33:42;22.30;99.90
2729;DHT22;1372;47.956;7.830;2022-08-19T12:36:16;22.30;99.90
2729;DHT22;1372;47.956;7.830;2022-08-19T12:38:46;22.30;99.90
2729;DHT22;1372;47.956;7.830;2022-08-19T12:41:16;22.40;99.90
2729;DHT22;1372;47.956;7.830;2022-08-19T12:44:05;22.40;99.90
2729;DHT22;1372;47.956;7.830;2022-08-19T12:46:37;22.30;99.90
2729;DHT22;1372;47.956;7.830;2022-08-19T12:49:06;22.30;99.90
2729;DHT22;1372;47.956;7.830;2022-08-19T12:51:41;22.40;99.90
2729;DHT22;1372;47.956;7.830;2022-08-19T12:54:10;22.40;99.90
2729;DHT22;1372;47.956;7.830;2022-08-19T12:56:59;22.40;99.90
2729;DHT22;1372;47.956;7.830;2022-08-19T12:59:27;22.30;99.90
2729;DHT22;1372;47.956;7.830;2022-08-19T13:02:17;22.30;99.90
2729;DHT22;1372;47.956;7.830;2022-08-19T13:04:46;22.40;99.90
2729;DHT22;1372;47.956;7.830;2022-08-19T13:07:15;22.40;99.90
2729;DHT22;1372;47.956;7.830;2022-08-19T13:09:44;22.60;99.90
2729;DHT22;1372;47.956;7.830;2022-08-19T13:12:13;22.60;99.90
2729;DHT22;1372;47.956;7.830;2022-08-19T13:14:43;22.50;99.90
2729;DHT22;1372;47.956;7.830;2022-08-19T13:17:20;22.60;99.90
2729;DHT22;1372;47.956;7.830;2022-08-19T13:19:50;22.80;99.90
2729;DHT22;1372;47.956;7.830;2022-08-19T13:22:19;23.10;99.90
2729;DHT22;1372;47.956;7.830;2022-08-19T13:24:50;23.30;99.90
2729;DHT22;1372;47.956;7.830;2022-08-19T13:27:19;23.40;99.90
2729;DHT22;1372;47.956;7.830;2022-08-19T13:30:10;23.40;99.90
2729;DHT22;1372;47.956;7.830;2022-08-19T13:33:01;23.40;99.90
2729;DHT22;1372;47.956;7.830;2022-08-19T13:35:45;23.40;99.90
2729;DHT22;1372;47.956;7.830;2022-08-19T13:38:17;23.40;99.90
2729;DHT22;1372;47.956;7.830;2022-08-19T13:40:48;23.40;99.90
2729;DHT22;1372;47.956;7.830;2022-08-19T13:43:23;23.40;99.90
2729;DHT22;1372;47.956;7.830;2022-08-19T13:45:54;23.40;99.90
2729;DHT22;1372;47.956;7.830;2022-08-19T13:48:25;23.60;99.90
2729;DHT22;1372;47.956;7.830;2022-08-19T13:51:15;23.70;99.90
2729;DHT22;1372;47.956;7.830;2022-08-19T13:53:44;24.00;99.90
2729;DHT22;1372;47.956;7.830;2022-08-19T13:56:18;24.00;99.90
2729;DHT22;1372;47.956;7.830;2022-08-19T13:58:54;24.00;99.90
2729;DHT22;1372;47.956;7.830;2022-08-19T14:01:23;24.10;99.90
2729;DHT22;1372;47.956;7.830;2022-08-19T14:04:14;24.10;99.90
2729;DHT22;1372;47.956;7.830;2022-08-19T14:06:44;24.00;99.90
2729;DHT22;1372;47.956;7.830;2022-08-19T14:09:12;24.00;99.90
2729;DHT22;1372;47.956;7.830;2022-08-19T14:11:41;24.10;99.90
2729;DHT22;1372;47.956;7.830;2022-08-19T14:14:15;24.10;99.90
2729;DHT22;1372;47.956;7.830;2022-08-19T14:16:44;24.00;99.90
2729;DHT22;1372;47.956;7.830;2022-08-19T14:19:14;24.00;99.90
2729;DHT22;1372;47.956;7.830;2022-08-19T14:22:08;24.20;99.90
2729;DHT22;1372;47.956;7.830;2022-08-19T14:24:38;24.30;99.90
2729;DHT22;1372;47.956;7.830;2022-08-19T14:27:27;24.20;99.90
2729;DHT22;1372;47.956;7.830;2022-08-19T14:29:56;24.00;99.90
2729;DHT22;1372;47.956;7.830;2022-08-19T14:32:25;23.70;99.90
2729;DHT22;1372;47.956;7.830;2022-08-19T14:34:56;23.50;99.90
2729;DHT22;1372;47.956;7.830;2022-08-19T14:37:25;23.40;99.90
2729;DHT22;1372;47.956;7.830;2022-08-19T14:39:54;23.20;99.90
2729;DHT22;1372;47.956;7.830;2022-08-19T14:42:22;23.10;99.90
2729;DHT22;1372;47.956;7.830;2022-08-19T14:44:51;23.00;99.90
2729;DHT22;1372;47.956;7.830;2022-08-19T14:47:21;23.00;99.90
2729;DHT22;1372;47.956;7.830;2022-08-19T14:49:49;22.70;99.90
2729;DHT22;1372;47.956;7.830;2022-08-19T14:52:19;22.40;99.90
2729;DHT22;1372;47.956;7.830;2022-08-19T14:54:48;22.20;99.90
2729;DHT22;1372;47.956;7.830;2022-08-19T14:57:17;22.00;99.90
2729;DHT22;1372;47.956;7.830;2022-08-19T14:59:46;21.90;99.90
2729;DHT22;1372;47.956;7.830;2022-08-19T15:02:18;21.80;99.90
2729;DHT22;1372;47.956;7.830;2022-08-19T15:05:01;21.60;99.90
2729;DHT22;1372;47.956;7.830;2022-08-19T15:07:31;21.40;99.90
2729;DHT22;1372;47.956;7.830;2022-08-19T15:10:00;21.40;99.90
2729;DHT22;1372;47.956;7.830;2022-08-19T15:12:29;21.30;99.90
2729;DHT22;1372;47.956;7.830;2022-08-19T15:15:01;21.30;99.90
2729;DHT22;1372;47.956;7.830;2022-08-19T15:17:30;21.20;99.90
2729;DHT22;1372;47.956;7.830;2022-08-19T15:20:15;21.20;99.90
2729;DHT22;1372;47.956;7.830;2022-08-19T15:22:46;21.20;99.90
2729;DHT22;1372;47.956;7.830;2022-08-19T15:25:17;21.10;99.90
2729;DHT22;1372;47.956;7.830;2022-08-19T15:27:47;21.10;99.90
2729;DHT22;1372;47.956;7.830;2022-08-19T15:30:19;21.20;99.90
2729;DHT22;1372;47.956;7.830;2022-08-19T15:32:51;21.20;99.90
2729;DHT22;1372;47.956;7.830;2022-08-19T15:35:23;21.20;99.90
2729;DHT22;1372;47.956;7.830;2022-08-19T15:38:13;21.20;99.90
2729;DHT22;1372;47.956;7.830;2022-08-19T15:40:43;21.20;99.90
2729;DHT22;1372;47.956;7.830;2022-08-19T15:43:15;21.10;99.90
2729;DHT22;1372;47.956;7.830;2022-08-19T15:45:44;21.10;99.90
2729;DHT22;1372;47.956;7.830;2022-08-19T15:48:36;21.10;99.90
2729;DHT22;1372;47.956;7.830;2022-08-19T15:51:05;21.10;99.90
2729;DHT22;1372;47.956;7.830;2022-08-19T15:53:37;21.20;99.90
2729;DHT22;1372;47.956;7.830;2022-08-19T15:56:06;21.20;99.90
2729;DHT22;1372;47.956;7.830;2022-08-19T15:58:35;21.20;99.90
2729;DHT22;1372;47.956;7.830;2022-08-19T16:01:22;21.30;99.90
2729;DHT22;1372;47.956;7.830;2022-08-19T16:04:08;21.30;99.90
2729;DHT22;1372;47.956;7.830;2022-08-19T16:06:58;21.40;99.90
2729;DHT22;1372;47.956;7.830;2022-08-19T16:09:30;21.50;99.90
2729;DHT22;1372;47.956;7.830;2022-08-19T16:12:02;21.60;99.90
2729;DHT22;1372;47.956;7.830;2022-08-19T16:14:34;21.60;99.90
2729;DHT22;1372;47.956;7.830;2022-08-19T16:17:05;21.60;99.90
2729;DHT22;1372;47.956;7.830;2022-08-19T16:19:38;21.60;99.90
2729;DHT22;1372;47.956;7.830;2022-08-19T16:22:07;21.70;99.90
2729;DHT22;1372;47.956;7.830;2022-08-19T16:24:38;21.70;99.90
2729;DHT22;1372;47.956;7.830;2022-08-19T16:27:06;21.70;99.90
2729;DHT22;1372;47.956;7.830;2022-08-19T16:29:35;21.70;99.90
2729;DHT22;1372;47.956;7.830;2022-08-19T16:32:07;21.80;99.90
2729;DHT22;1372;47.956;7.830;2022-08-19T16:34:43;21.70;99.90
2729;DHT22;1372;47.956;7.830;2022-08-19T16:37:12;21.70;99.90
2729;DHT22;1372;47.956;7.830;2022-08-19T16:40:04;21.70;99.90
2729;DHT22;1372;47.956;7.830;2022-08-19T16:42:35;21.80;99.90
2729;DHT22;1372;47.956;7.830;2022-08-19T16:45:04;21.70;99.90
2729;DHT22;1372;47.956;7.830;2022-08-19T16:47:35;21.80;99.90
2729;DHT22;1372;47.956;7.830;2022-08-19T16:50:05;21.80;99.90